createdAt,value
2018-02-15T00:00:00.258Z,69.65
2018-02-15T00:01:00.520Z,69.74
2018-02-15T00:02:00.531Z,69.84
2018-02-15T00:03:00.288Z,69.56
2018-02-15T00:04:00.552Z,69.37
2018-02-15T00:05:00.562Z,69.65
2018-02-15T00:06:00.322Z,69.18
2018-02-15T00:07:00.335Z,69.56
2018-02-15T00:08:00.351Z,69.18
2018-02-15T00:09:00.354Z,69.84
2018-02-15T00:10:00.621Z,69.65
2018-02-15T00:11:00.627Z,69.74
2018-02-15T00:12:00.386Z,69.65
2018-02-15T00:13:00.395Z,69.65
2018-02-15T00:14:00.430Z,69.27
2018-02-15T00:15:00.419Z,69.37
2018-02-15T00:16:00.683Z,69.74
2018-02-15T00:17:00.693Z,70.09
2018-02-15T00:18:00.704Z,69.93
2018-02-15T00:19:00.461Z,70.09
2018-02-15T00:20:00.471Z,69.74
2018-02-15T00:21:00.495Z,70.09
2018-02-15T00:22:00.754Z,70.18
2018-02-15T00:23:00.755Z,70.09
2018-02-15T00:24:00.512Z,69.81
2018-02-15T00:25:00.524Z,70.37
2018-02-15T00:26:00.533Z,70.09
2018-02-15T00:27:00.797Z,70.18
2018-02-15T00:28:00.813Z,69.9
2018-02-15T00:29:00.859Z,69.81
2018-02-15T00:30:00.829Z,70.09
2018-02-15T00:31:00.858Z,70
2018-02-15T00:32:00.848Z,70
2018-02-15T00:33:00.605Z,69.71
2018-02-15T00:34:00.871Z,69.62
2018-02-15T00:35:00.879Z,69.62
2018-02-15T00:36:00.638Z,69.14
2018-02-15T00:37:00.904Z,69.14
2018-02-15T00:38:00.665Z,69.33
2018-02-15T00:39:00.672Z,69.52
2018-02-15T00:40:00.684Z,69.14
2018-02-15T00:41:00.688Z,69.62
2018-02-15T00:42:00.701Z,69.24
2018-02-15T00:43:00.962Z,69.9
2018-02-15T00:44:00.973Z,69.05
2018-02-15T00:45:00.731Z,69.14
2018-02-15T00:46:00.994Z,69.43
2018-02-15T00:47:00.754Z,69.33
2018-02-15T00:48:01.014Z,69.43
2018-02-15T00:49:01.030Z,68.67
2018-02-15T00:50:01.038Z,68.67
2018-02-15T00:51:00.793Z,69.71
2018-02-15T00:52:00.808Z,69.14
2018-02-15T00:53:01.067Z,68.76
2018-02-15T00:54:01.078Z,69.14
2018-02-15T00:55:01.087Z,69.05
2018-02-15T00:56:01.099Z,69.14
2018-02-15T00:57:01.109Z,68.71
2018-02-15T00:58:01.118Z,68.48
2018-02-15T00:59:01.128Z,68.71
2018-02-15T01:00:01.139Z,68.29
2018-02-15T01:01:01.145Z,68.23
2018-02-15T01:02:00.903Z,68.1
2018-02-15T01:03:01.165Z,68.86
2018-02-15T01:04:01.174Z,68.76
2018-02-15T01:05:01.188Z,68.57
2018-02-15T01:06:00.942Z,68.67
2018-02-15T01:07:01.206Z,68.67
2018-02-15T01:08:01.213Z,68.86
2018-02-15T01:09:01.226Z,68.48
2018-02-15T01:10:01.240Z,68.76
2018-02-15T01:11:01.011Z,68.86
2018-02-15T01:12:01.006Z,68.57
2018-02-15T01:13:01.267Z,68.39
2018-02-15T01:14:01.025Z,68.57
2018-02-15T01:15:01.290Z,68.67
2018-02-15T01:16:01.301Z,68.39
2018-02-15T01:17:01.308Z,68.67
2018-02-15T01:18:01.323Z,68.76
2018-02-15T01:19:01.076Z,68.57
2018-02-15T01:20:01.343Z,68.29
2018-02-15T01:21:01.099Z,68.57
2018-02-15T01:22:01.109Z,68.39
2018-02-15T01:23:01.120Z,68.67
2018-02-15T01:24:01.386Z,68.57
2018-02-15T01:25:01.142Z,68.48
2018-02-15T01:26:01.148Z,68.67
2018-02-15T01:27:01.413Z,68.57
2018-02-15T01:28:01.169Z,68.48
2018-02-15T01:29:01.432Z,68.86
2018-02-15T01:30:01.441Z,68.48
2018-02-15T01:31:01.452Z,68.39
2018-02-15T01:32:01.464Z,68.57
2018-02-15T01:33:01.471Z,68.2
2018-02-15T01:34:01.228Z,67.91
2018-02-15T01:35:01.240Z,68.1
2018-02-15T01:36:01.502Z,68.57
2018-02-15T01:37:01.511Z,68.39
2018-02-15T01:38:01.521Z,68.76
2018-02-15T01:39:01.530Z,68.39
2018-02-15T01:40:01.543Z,68.48
2018-02-15T01:41:01.558Z,68.95
2018-02-15T01:42:01.312Z,68.57
2018-02-15T01:43:01.572Z,68.39
2018-02-15T01:44:01.582Z,68.39
2018-02-15T01:45:01.339Z,68.76
2018-02-15T01:46:01.603Z,68.57
2018-02-15T01:47:01.617Z,68.39
2018-02-15T01:48:01.648Z,68.39
2018-02-15T01:49:01.385Z,68.29
2018-02-15T01:50:01.647Z,68.39
2018-02-15T01:51:01.402Z,68.2
2018-02-15T01:52:01.413Z,67.91
2018-02-15T01:53:01.677Z,68.1
2018-02-15T01:54:01.685Z,68.39
2018-02-15T01:55:01.442Z,68.67
2018-02-15T01:56:01.452Z,68.2
2018-02-15T01:57:01.463Z,68.39
2018-02-15T01:58:01.472Z,68.2
2018-02-15T01:59:01.740Z,68.39
2018-02-15T02:00:01.747Z,68.48
2018-02-15T02:01:01.503Z,68.48
2018-02-15T02:02:01.513Z,68.57
2018-02-15T02:03:01.780Z,68.39
2018-02-15T02:04:01.782Z,68.76
2018-02-15T02:05:01.792Z,68.57
2018-02-15T02:06:01.801Z,68.86
2018-02-15T02:07:01.564Z,68.1
2018-02-15T02:08:01.823Z,67.91
2018-02-15T02:09:01.847Z,67.35
2018-02-15T02:10:01.845Z,67.72
2018-02-15T02:11:01.603Z,67.63
2018-02-15T02:12:01.865Z,67.63
2018-02-15T02:13:01.620Z,67.63
2018-02-15T02:14:01.654Z,67.72
2018-02-15T02:15:01.896Z,66.97
2018-02-15T02:16:01.917Z,67.07
2018-02-15T02:17:01.663Z,67.16
2018-02-15T02:18:01.673Z,66.78
2018-02-15T02:19:01.936Z,67.35
2018-02-15T02:20:01.691Z,67.16
2018-02-15T02:21:01.973Z,66.88
2018-02-15T02:22:01.712Z,67.07
2018-02-15T02:23:01.981Z,67.44
2018-02-15T02:24:01.994Z,67.35
2018-02-15T02:25:01.993Z,66.97
2018-02-15T02:26:02.006Z,67.44
2018-02-15T02:27:02.012Z,67.16
2018-02-15T02:28:01.789Z,67.07
2018-02-15T02:29:01.781Z,67.16
2018-02-15T02:30:01.798Z,67.44
2018-02-15T02:32:01.810Z,67.44
2018-02-15T02:33:02.073Z,67.91
2018-02-15T02:34:01.831Z,68.1
2018-02-15T02:35:01.857Z,67.91
2018-02-15T02:36:01.851Z,68.1
2018-02-15T02:37:01.862Z,67.91
2018-02-15T02:38:02.128Z,67.63
2018-02-15T02:39:01.880Z,67.44
2018-02-15T02:40:02.146Z,68.1
2018-02-15T02:41:02.153Z,68.95
2018-02-15T02:42:01.926Z,68.44
2018-02-15T02:43:02.181Z,68.57
2018-02-15T02:44:02.184Z,68.63
2018-02-15T02:45:01.941Z,68.44
2018-02-15T02:46:02.204Z,68.54
2018-02-15T02:47:02.220Z,68.48
2018-02-15T02:48:02.227Z,68.39
2018-02-15T02:49:01.984Z,68.35
2018-02-15T02:50:01.993Z,68.35
2018-02-15T02:51:02.000Z,68.54
2018-02-15T02:52:02.010Z,68.54
2018-02-15T02:53:02.020Z,68.29
2018-02-15T02:54:02.030Z,68.39
2018-02-15T02:55:02.293Z,68.01
2018-02-15T02:56:02.307Z,66.88
2018-02-15T02:57:02.318Z,67.54
2018-02-15T02:58:02.328Z,67.25
2018-02-15T02:59:02.081Z,67.25
2018-02-15T03:00:02.347Z,66.69
2018-02-15T03:01:02.359Z,66.41
2018-02-15T03:02:02.109Z,67.07
2018-02-15T03:03:02.386Z,66.41
2018-02-15T03:04:02.393Z,65.84
2018-02-15T03:05:02.404Z,66.22
2018-02-15T03:06:02.401Z,66.22
2018-02-15T03:07:02.413Z,65.84
2018-02-15T03:08:02.167Z,65.36
2018-02-15T03:09:02.432Z,65.36
2018-02-15T03:10:02.445Z,65.55
2018-02-15T03:11:02.452Z,65.27
2018-02-15T03:12:02.460Z,65.55
2018-02-15T03:13:02.218Z,65.55
2018-02-15T03:14:02.225Z,65.46
2018-02-15T03:15:02.238Z,65.65
2018-02-15T03:16:02.498Z,66.22
2018-02-15T03:17:02.257Z,66.41
2018-02-15T03:18:02.521Z,66.31
2018-02-15T03:19:02.542Z,66.31
2018-02-15T03:20:02.286Z,66.31
2018-02-15T03:21:02.297Z,66.5
2018-02-15T03:22:02.306Z,66.5
2018-02-15T03:23:02.574Z,66.78
2018-02-15T03:24:02.588Z,66.88
2018-02-15T03:25:02.595Z,66.5
2018-02-15T03:26:02.348Z,66.78
2018-02-15T03:27:02.356Z,67.07
2018-02-15T03:28:02.621Z,66.41
2018-02-15T03:29:02.630Z,66.97
2018-02-15T03:30:02.390Z,66.88
2018-02-15T03:31:02.658Z,66.5
2018-02-15T03:32:02.668Z,66.5
2018-02-15T03:33:02.673Z,66.03
2018-02-15T03:34:02.680Z,66.22
2018-02-15T03:35:02.688Z,65.93
2018-02-15T03:36:02.445Z,65.36
2018-02-15T03:37:02.711Z,65.74
2018-02-15T03:38:02.465Z,65.55
2018-02-15T03:39:02.735Z,66.03
2018-02-15T03:40:02.737Z,65.74
2018-02-15T03:41:02.494Z,65.65
2018-02-15T03:42:02.505Z,65.52
2018-02-15T03:43:02.768Z,65.36
2018-02-15T03:44:02.780Z,65.14
2018-02-15T03:45:02.790Z,65.08
2018-02-15T03:46:02.567Z,65.27
2018-02-15T03:47:02.810Z,65.08
2018-02-15T03:48:02.564Z,64.98
2018-02-15T03:49:02.830Z,64.61
2018-02-15T03:50:02.841Z,64.42
2018-02-15T03:51:02.593Z,64.48
2018-02-15T03:52:02.862Z,64.51
2018-02-15T03:53:02.870Z,64.48
2018-02-15T03:54:02.621Z,64.39
2018-02-15T03:55:02.638Z,64.58
2018-02-15T03:56:02.894Z,64.42
2018-02-15T03:57:02.917Z,64.51
2018-02-15T03:58:02.661Z,64.39
2018-02-15T03:59:02.928Z,63.85
2018-02-15T04:00:02.933Z,64.04
2018-02-15T04:01:02.941Z,63.92
2018-02-15T04:02:02.955Z,63.57
2018-02-15T04:03:02.962Z,63.92
2018-02-15T04:04:02.724Z,63.48
2018-02-15T04:05:02.728Z,63.76
2018-02-15T04:06:02.738Z,63.29
2018-02-15T04:07:03.002Z,62.91
2018-02-15T04:08:02.759Z,62.62
2018-02-15T04:09:02.767Z,62.44
2018-02-15T04:10:02.782Z,61.96
2018-02-15T04:11:02.787Z,62.06
2018-02-15T04:12:02.796Z,62.72
2018-02-15T04:13:03.058Z,62.25
2018-02-15T04:14:02.834Z,61.96
2018-02-15T04:15:03.079Z,61.58
2018-02-15T04:16:03.087Z,61.77
2018-02-15T04:17:03.099Z,60.93
2018-02-15T04:18:02.853Z,61.02
2018-02-15T04:19:03.118Z,61.11
2018-02-15T04:20:02.878Z,61.11
2018-02-15T04:21:03.138Z,60.74
2018-02-15T04:22:02.898Z,61.49
2018-02-15T04:23:02.906Z,61.87
2018-02-15T04:24:03.165Z,61.4
2018-02-15T04:25:02.921Z,61.68
2018-02-15T04:26:03.185Z,60.93
2018-02-15T04:27:02.942Z,61.58
2018-02-15T04:28:03.210Z,61.49
2018-02-15T04:29:03.216Z,62.12
2018-02-15T04:30:02.973Z,63.26
2018-02-15T04:31:03.255Z,63.82
2018-02-15T04:32:03.245Z,64.29
2018-02-15T04:33:03.001Z,64.67
2018-02-15T04:34:03.013Z,64.67
2018-02-15T04:35:03.273Z,64.76
2018-02-15T04:36:03.283Z,65.23
2018-02-15T04:37:03.040Z,64.67
2018-02-15T04:38:03.306Z,64.95
2018-02-15T04:39:03.310Z,64.95
2018-02-15T04:40:03.066Z,64.67
2018-02-15T04:41:03.329Z,65.05
2018-02-15T04:42:03.340Z,64.48
2018-02-15T04:43:03.096Z,64.67
2018-02-15T04:44:03.361Z,64.67
2018-02-15T04:45:03.119Z,64.39
2018-02-15T04:46:03.380Z,64.39
2018-02-15T04:47:03.395Z,64.48
2018-02-15T04:48:03.146Z,64.58
2018-02-15T04:49:03.413Z,64.67
2018-02-15T04:50:03.167Z,64.58
2018-02-15T04:51:03.173Z,64.58
2018-02-15T04:52:03.435Z,64.67
2018-02-15T04:53:03.448Z,64.67
2018-02-15T04:54:03.459Z,64.48
2018-02-15T04:55:03.472Z,64.58
2018-02-15T04:56:03.478Z,64.48
2018-02-15T04:57:03.234Z,64.29
2018-02-15T04:58:03.497Z,64.2
2018-02-15T04:59:03.505Z,64.29
2018-02-15T05:00:03.515Z,64.48
2018-02-15T05:01:03.526Z,64.48
2018-02-15T05:02:03.283Z,64.67
2018-02-15T05:03:03.545Z,64.39
2018-02-15T05:04:03.299Z,64.29
2018-02-15T05:05:03.566Z,64.48
2018-02-15T05:06:03.574Z,64.48
2018-02-15T05:07:03.587Z,64.2
2018-02-15T05:08:03.341Z,63.48
2018-02-15T05:09:03.602Z,63.82
2018-02-15T05:10:03.369Z,63.82
2018-02-15T05:11:03.621Z,63.48
2018-02-15T05:12:03.636Z,63.1
2018-02-15T05:13:03.642Z,63.16
2018-02-15T05:14:03.650Z,63.45
2018-02-15T05:15:03.660Z,63
2018-02-15T05:16:03.672Z,63.38
2018-02-15T05:17:03.433Z,63.26
2018-02-15T05:18:03.722Z,62.91
2018-02-15T05:19:03.697Z,63.29
2018-02-15T05:20:03.454Z,62.81
2018-02-15T05:21:03.464Z,62.53
2018-02-15T05:22:03.732Z,62.25
2018-02-15T05:23:03.737Z,62.15
2018-02-15T05:24:03.745Z,62.62
2018-02-15T05:25:03.505Z,62.06
2018-02-15T05:26:03.767Z,62.44
2018-02-15T05:27:03.527Z,62.06
2018-02-15T05:28:03.535Z,61.77
2018-02-15T05:29:03.543Z,61.77
2018-02-15T05:30:03.554Z,61.3
2018-02-15T05:31:03.826Z,61.68
2018-02-15T05:32:03.577Z,61.02
2018-02-15T05:33:03.581Z,61.11
2018-02-15T05:34:03.593Z,60.83
2018-02-15T05:35:03.860Z,60.74
2018-02-15T05:36:03.867Z,60.27
2018-02-15T05:37:03.652Z,60.83
2018-02-15T05:38:03.633Z,60.36
2018-02-15T05:39:03.642Z,60.27
2018-02-15T05:40:03.903Z,60.36
2018-02-15T05:41:03.912Z,59.51
2018-02-15T05:42:03.927Z,59.41
2018-02-15T05:43:03.682Z,59.41
2018-02-15T05:44:03.711Z,58.94
2018-02-15T05:45:03.957Z,58.56
2018-02-15T05:46:03.964Z,58
2018-02-15T05:47:03.723Z,58.18
2018-02-15T05:48:03.982Z,57.43
2018-02-15T05:49:03.743Z,56.86
2018-02-15T05:50:04.011Z,56.77
2018-02-15T05:51:04.030Z,56.58
2018-02-15T05:52:03.778Z,56.67
2018-02-15T05:53:04.039Z,56.67
2018-02-15T05:54:04.045Z,56.39
2018-02-15T05:55:04.062Z,55.63
2018-02-15T05:56:04.069Z,55.35
2018-02-15T05:57:03.830Z,55.63
2018-02-15T05:58:04.100Z,56.01
2018-02-15T05:59:04.093Z,55.73
2018-02-15T06:00:04.112Z,55.38
2018-02-15T06:01:04.138Z,55.19
2018-02-15T06:02:03.874Z,55.07
2018-02-15T06:03:04.138Z,55.1
2018-02-15T06:04:04.201Z,55.07
2018-02-15T06:05:03.911Z,55
2018-02-15T06:06:04.171Z,54.72
2018-02-15T06:07:04.181Z,55
2018-02-15T06:08:04.206Z,54.91
2018-02-15T06:09:04.203Z,54.25
2018-02-15T06:10:04.210Z,54.91
2018-02-15T06:11:03.967Z,54.79
2018-02-15T06:12:04.232Z,54.79
2018-02-15T06:13:04.005Z,54.72
2018-02-15T06:14:04.000Z,55.1
2018-02-15T06:15:04.271Z,54.53
2018-02-15T06:16:04.021Z,55.07
2018-02-15T06:17:04.028Z,55.26
2018-02-15T06:18:04.037Z,55.07
2018-02-15T06:19:04.049Z,55.16
2018-02-15T06:20:04.312Z,55.1
2018-02-15T06:21:04.323Z,55.1
2018-02-15T06:22:04.083Z,54.91
2018-02-15T06:23:04.091Z,55.1
2018-02-15T06:24:04.102Z,55.19
2018-02-15T06:25:04.368Z,55.76
2018-02-15T06:26:04.129Z,55.73
2018-02-15T06:27:04.384Z,55.82
2018-02-15T06:28:04.401Z,56.39
2018-02-15T06:29:04.154Z,56.51
2018-02-15T06:30:04.419Z,56.51
2018-02-15T06:31:04.426Z,56.58
2018-02-15T06:32:04.184Z,56.48
2018-02-15T06:33:04.195Z,57.05
2018-02-15T06:34:04.457Z,57.34
2018-02-15T06:35:04.216Z,57.71
2018-02-15T06:36:04.481Z,57.43
2018-02-15T06:37:04.236Z,57.62
2018-02-15T06:38:04.505Z,58.28
2018-02-15T06:39:04.258Z,58.09
2018-02-15T06:40:04.520Z,58.56
2018-02-15T06:41:04.292Z,57.71
2018-02-15T06:42:04.582Z,58.18
2018-02-15T06:43:04.297Z,57.81
2018-02-15T06:44:04.558Z,58
2018-02-15T06:45:04.571Z,58.47
2018-02-15T06:46:04.326Z,58.28
2018-02-15T06:47:04.336Z,58.28
2018-02-15T06:48:04.603Z,58.47
2018-02-15T06:49:04.610Z,58.28
2018-02-15T06:50:04.619Z,58.75
2018-02-15T06:51:04.639Z,58.56
2018-02-15T06:52:04.644Z,58.47
2018-02-15T06:53:04.704Z,58.18
2018-02-15T06:54:04.658Z,58.09
2018-02-15T06:55:04.425Z,57.9
2018-02-15T06:56:04.682Z,58
2018-02-15T06:57:04.438Z,57.9
2018-02-15T06:58:04.449Z,58
2018-02-15T06:59:04.715Z,58.28
2018-02-15T07:00:04.468Z,58.09
2018-02-15T07:01:04.830Z,58.09
2018-02-15T07:02:04.494Z,57.53
2018-02-15T07:03:04.750Z,57.27
2018-02-15T07:04:04.509Z,56.61
2018-02-15T07:05:04.776Z,56.61
2018-02-15T07:06:04.530Z,56.8
2018-02-15T07:07:04.792Z,56.32
2018-02-15T07:08:04.555Z,55.85
2018-02-15T07:09:04.563Z,55.76
2018-02-15T07:10:04.824Z,55.66
2018-02-15T07:11:04.834Z,56.04
2018-02-15T07:12:04.592Z,56.04
2018-02-15T07:13:04.858Z,55.66
2018-02-15T07:14:04.613Z,55.85
2018-02-15T07:15:04.877Z,55.47
2018-02-15T07:16:04.669Z,55.66
2018-02-15T07:17:04.899Z,55.94
2018-02-15T07:18:04.658Z,55.38
2018-02-15T07:19:04.669Z,54.81
2018-02-15T07:20:04.931Z,54.44
2018-02-15T07:21:04.690Z,53.77
2018-02-15T07:22:04.700Z,52.73
2018-02-15T07:23:04.711Z,52.55
2018-02-15T07:24:04.977Z,52.17
2018-02-15T07:25:04.733Z,51.5
2018-02-15T07:26:04.742Z,51.5
2018-02-15T07:27:05.006Z,51.69
2018-02-15T07:28:05.019Z,51.98
2018-02-15T07:29:04.777Z,51.98
2018-02-15T07:30:04.819Z,52.07
2018-02-15T07:31:04.800Z,51.6
2018-02-15T07:32:05.067Z,51.6
2018-02-15T07:33:04.822Z,51.13
2018-02-15T07:34:05.085Z,51.32
2018-02-15T07:35:04.843Z,51.13
2018-02-15T07:36:05.106Z,51.13
2018-02-15T07:37:04.872Z,51.5
2018-02-15T07:38:05.127Z,51.5
2018-02-15T07:39:04.883Z,51.41
2018-02-15T07:40:05.149Z,51.6
2018-02-15T07:41:05.155Z,50.96
2018-02-15T07:42:05.169Z,50.4
2018-02-15T07:43:05.183Z,50.78
2018-02-15T07:44:04.946Z,50.49
2018-02-15T07:45:05.207Z,50.3
2018-02-15T07:46:04.962Z,50.21
2018-02-15T07:47:05.228Z,50.21
2018-02-15T07:48:05.238Z,49.92
2018-02-15T07:49:05.253Z,50.02
2018-02-15T07:50:05.264Z,49.83
2018-02-15T07:51:05.022Z,50.02
2018-02-15T07:52:05.285Z,49.64
2018-02-15T07:53:05.046Z,50.49
2018-02-15T07:54:05.309Z,50.11
2018-02-15T07:55:05.322Z,50.02
2018-02-15T07:56:05.075Z,49.45
2018-02-15T07:57:05.342Z,49.16
2018-02-15T07:58:05.101Z,48.88
2018-02-15T07:59:05.366Z,48.88
2018-02-15T08:00:05.380Z,48.88
2018-02-15T08:01:05.135Z,48.97
2018-02-15T08:02:05.405Z,49.26
2018-02-15T08:03:05.410Z,49.54
2018-02-15T08:04:05.448Z,49.45
2018-02-15T08:05:05.196Z,49.73
2018-02-15T08:06:05.198Z,50.02
2018-02-15T08:07:05.459Z,49.45
2018-02-15T08:08:05.222Z,48.88
2018-02-15T08:09:05.483Z,48.69
2018-02-15T08:10:05.241Z,49.07
2018-02-15T08:11:05.508Z,48.69
2018-02-15T08:12:05.518Z,48.97
2018-02-15T08:13:05.530Z,48.6
2018-02-15T08:14:05.538Z,48.5
2018-02-15T08:15:05.557Z,48.97
2018-02-15T08:16:05.309Z,48.69
2018-02-15T08:17:05.579Z,48.79
2018-02-15T08:18:05.586Z,48.63
2018-02-15T08:19:05.350Z,48.15
2018-02-15T08:20:05.377Z,48.44
2018-02-15T08:21:05.627Z,48.53
2018-02-15T08:22:05.637Z,48.53
2018-02-15T08:23:05.645Z,48.15
2018-02-15T08:24:05.407Z,48.34
2018-02-15T08:25:05.671Z,48.25
2018-02-15T08:26:05.431Z,48.25
2018-02-15T08:27:05.444Z,48.53
2018-02-15T08:28:05.707Z,47.87
2018-02-15T08:29:05.718Z,47.58
2018-02-15T08:30:05.479Z,47.58
2018-02-15T08:31:05.490Z,47.87
2018-02-15T08:32:05.500Z,47.77
2018-02-15T08:33:05.514Z,47.68
2018-02-15T08:34:05.778Z,47.77
2018-02-15T08:35:05.540Z,47.58
2018-02-15T08:36:05.816Z,46.73
2018-02-15T08:37:05.562Z,46.92
2018-02-15T08:38:05.837Z,47.77
2018-02-15T08:39:05.839Z,46.66
2018-02-15T08:40:05.855Z,46.56
2018-02-15T08:41:05.622Z,46.66
2018-02-15T08:42:05.625Z,45.81
2018-02-15T08:43:05.637Z,45.62
2018-02-15T08:44:05.648Z,45.62
2018-02-15T08:45:05.916Z,45.62
2018-02-15T08:46:05.924Z,44.96
2018-02-15T08:47:05.941Z,44.96
2018-02-15T08:48:05.705Z,44.48
2018-02-15T08:49:05.967Z,44.58
2018-02-15T08:50:05.984Z,44.96
2018-02-15T08:51:05.992Z,44.48
2018-02-15T08:52:06.066Z,44.67
2018-02-15T08:53:06.014Z,44.58
2018-02-15T08:54:06.027Z,44.86
2018-02-15T08:55:06.048Z,44.67
2018-02-15T08:56:06.062Z,44.86
2018-02-15T08:57:05.816Z,44.77
2018-02-15T08:58:06.099Z,44.48
2018-02-15T08:59:06.089Z,45.15
2018-02-15T09:00:06.105Z,45.15
2018-02-15T09:01:06.114Z,44.58
2018-02-15T09:02:06.132Z,44.48
2018-02-15T09:03:05.889Z,44.58
2018-02-15T09:04:05.902Z,44.58
2018-02-15T09:05:06.174Z,44.29
2018-02-15T09:06:05.926Z,44.48
2018-02-15T09:07:05.941Z,44.58
2018-02-15T09:08:05.954Z,44.29
2018-02-15T09:09:06.219Z,44.39
2018-02-15T09:10:06.232Z,44.2
2018-02-15T09:11:06.245Z,43.73
2018-02-15T09:12:06.006Z,43.44
2018-02-15T09:13:06.018Z,43.44
2018-02-15T09:14:06.283Z,43.82
2018-02-15T09:15:06.297Z,43.91
2018-02-15T09:16:06.056Z,43.94
2018-02-15T09:17:06.077Z,43.84
2018-02-15T09:18:06.085Z,43.18
2018-02-15T09:19:06.099Z,42.9
2018-02-15T09:20:06.111Z,43.08
2018-02-15T09:21:06.125Z,42.43
2018-02-15T09:22:06.392Z,41.85
2018-02-15T09:23:06.437Z,41.57
2018-02-15T09:24:06.427Z,41.76
2018-02-15T09:25:06.428Z,41.76
2018-02-15T09:26:06.445Z,41.97
2018-02-15T09:27:06.531Z,41.78
2018-02-15T09:28:06.471Z,41.12
2018-02-15T09:29:06.239Z,40.93
2018-02-15T09:30:06.249Z,40.55
2018-02-15T09:31:06.260Z,40.36
2018-02-15T09:32:06.528Z,40.36
2018-02-15T09:33:06.548Z,40.64
2018-02-15T09:34:06.307Z,40.26
2018-02-15T09:35:06.318Z,40.08
2018-02-15T09:36:06.584Z,39.79
2018-02-15T09:37:06.343Z,39.7
2018-02-15T09:38:06.626Z,39.22
2018-02-15T09:39:06.373Z,39.43
2018-02-15T09:40:06.388Z,39.13
2018-02-15T09:41:06.402Z,39.41
2018-02-15T09:42:06.670Z,38.77
2018-02-15T09:43:06.685Z,38.29
2018-02-15T09:44:06.443Z,38.56
2018-02-15T09:45:06.709Z,38.67
2018-02-15T09:46:06.723Z,38.48
2018-02-15T09:47:06.755Z,38.01
2018-02-15T09:48:06.754Z,38.58
2018-02-15T09:49:06.769Z,38.58
2018-02-15T09:50:06.784Z,38.37
2018-02-15T09:51:06.803Z,38.1
2018-02-15T09:52:06.558Z,38.18
2018-02-15T09:53:06.845Z,38.29
2018-02-15T09:54:06.839Z,37.82
2018-02-15T09:55:06.855Z,37.35
2018-02-15T09:56:06.865Z,36.78
2018-02-15T09:57:06.884Z,36.68
2018-02-15T09:58:06.898Z,36.3
2018-02-15T09:59:06.913Z,36.11
2018-02-15T10:00:06.675Z,36.11
2018-02-15T10:01:06.708Z,36.11
2018-02-15T10:02:06.700Z,36.13
2018-02-15T10:03:06.713Z,35.75
2018-02-15T10:04:06.984Z,36.04
2018-02-15T10:05:06.997Z,36.13
2018-02-15T10:06:06.759Z,36.04
2018-02-15T10:07:06.786Z,35.75
2018-02-15T10:08:07.041Z,35.94
2018-02-15T10:09:07.059Z,35.47
2018-02-15T10:10:07.086Z,36.04
2018-02-15T10:11:07.083Z,36.13
2018-02-15T10:12:06.846Z,35.75
2018-02-15T10:13:06.859Z,36.04
2018-02-15T10:14:07.128Z,35.47
2018-02-15T10:15:07.147Z,35.47
2018-02-15T10:16:07.155Z,35.18
2018-02-15T10:17:07.170Z,35.18
2018-02-15T10:18:06.934Z,35.47
2018-02-15T10:19:06.948Z,35.3
2018-02-15T10:20:06.962Z,35.49
2018-02-15T10:21:06.978Z,35.01
2018-02-15T10:22:07.014Z,35.47
2018-02-15T10:23:07.260Z,35.38
2018-02-15T10:24:07.021Z,36.04
2018-02-15T10:25:07.288Z,35.57
2018-02-15T10:26:07.306Z,35.94
2018-02-15T10:27:07.322Z,36.04
2018-02-15T10:28:07.079Z,35.94
2018-02-15T10:29:07.351Z,35.94
2018-02-15T10:30:07.128Z,36.13
2018-02-15T10:31:07.376Z,36.13
2018-02-15T10:32:07.395Z,36.32
2018-02-15T10:33:07.404Z,35.47
2018-02-15T10:34:07.210Z,35.28
2018-02-15T10:35:07.442Z,35.28
2018-02-15T10:36:07.459Z,35.45
2018-02-15T10:37:07.463Z,35.93
2018-02-15T10:38:07.476Z,36.21
2018-02-15T10:39:07.240Z,36.68
2018-02-15T10:40:07.506Z,36.68
2018-02-15T10:41:07.528Z,36.51
2018-02-15T10:42:07.547Z,36.68
2018-02-15T10:43:07.555Z,36.59
2018-02-15T10:44:07.320Z,36.78
2018-02-15T10:45:07.580Z,36.51
2018-02-15T10:46:07.594Z,36.7
2018-02-15T10:47:07.610Z,36.61
2018-02-15T10:48:07.372Z,36.61
2018-02-15T10:49:07.644Z,36.32
2018-02-15T10:50:07.402Z,36.32
2018-02-15T10:51:07.464Z,36.22
2018-02-15T10:52:07.683Z,36.04
2018-02-15T10:53:07.705Z,36.15
2018-02-15T10:54:07.712Z,36.05
2018-02-15T10:55:07.487Z,35.86
2018-02-15T10:56:07.491Z,35.3
2018-02-15T10:57:07.758Z,35.3
2018-02-15T10:58:07.517Z,35.3
2018-02-15T10:59:07.546Z,35.66
2018-02-15T11:00:07.801Z,35.66
2018-02-15T11:01:07.564Z,35.86
2018-02-15T11:02:07.578Z,35.3
2018-02-15T11:03:07.847Z,35.96
2018-02-15T11:04:07.863Z,36.34
2018-02-15T11:05:07.628Z,35.58
2018-02-15T11:06:07.892Z,35.39
2018-02-15T11:07:07.654Z,35.96
2018-02-15T11:08:07.923Z,36.04
2018-02-15T11:09:07.940Z,36.04
2018-02-15T11:10:07.728Z,35.86
2018-02-15T11:11:07.713Z,36.05
2018-02-15T11:12:07.728Z,35.58
2018-02-15T11:13:07.743Z,35.2
2018-02-15T11:14:08.013Z,35.28
2018-02-15T11:15:08.046Z,36.24
2018-02-15T11:16:07.790Z,35.3
2018-02-15T11:17:07.804Z,35.01
2018-02-15T11:18:08.074Z,34.82
2018-02-15T11:19:08.089Z,34.92
2018-02-15T11:20:08.105Z,34.63
2018-02-15T11:21:07.864Z,34.99
2018-02-15T11:22:08.131Z,36.04
2018-02-15T11:23:07.893Z,36.04
2018-02-15T11:24:07.909Z,36.04
2018-02-15T11:25:07.924Z,35.85
2018-02-15T11:26:08.236Z,36.22
2018-02-15T11:27:07.950Z,36.22
2018-02-15T11:28:08.218Z,36.13
2018-02-15T11:29:07.983Z,36.13
2018-02-15T11:30:08.001Z,36.13
2018-02-15T11:31:08.010Z,35.94
2018-02-15T11:32:08.027Z,35.96
2018-02-15T11:33:08.043Z,35.58
2018-02-15T11:34:08.056Z,36.04
2018-02-15T11:35:08.090Z,36.04
2018-02-15T11:36:08.087Z,35.94
2018-02-15T11:37:08.104Z,36.22
2018-02-15T11:38:08.114Z,36.13
2018-02-15T11:39:08.383Z,36.42
2018-02-15T11:40:08.400Z,36.8
2018-02-15T11:41:08.159Z,36.7
2018-02-15T11:42:08.425Z,37.01
2018-02-15T11:43:08.440Z,37.46
2018-02-15T11:44:08.462Z,37.01
2018-02-15T11:45:08.221Z,36.72
2018-02-15T11:46:08.482Z,36.34
2018-02-15T11:47:08.248Z,36.34
2018-02-15T11:48:08.260Z,36.53
2018-02-15T11:49:08.536Z,36.24
2018-02-15T11:50:08.546Z,36.24
2018-02-15T11:51:08.309Z,36.44
2018-02-15T11:52:08.326Z,36.63
2018-02-15T11:53:08.589Z,36.8
2018-02-15T11:54:08.353Z,37.55
2018-02-15T11:55:08.623Z,37.84
2018-02-15T11:56:08.397Z,37.48
2018-02-15T11:57:08.399Z,37.76
2018-02-15T11:58:08.670Z,37.19
2018-02-15T11:59:08.688Z,37.19
2018-02-15T12:00:08.690Z,37.37
2018-02-15T12:01:08.724Z,37.55
2018-02-15T12:02:08.470Z,37.46
2018-02-15T12:03:08.736Z,37.46
2018-02-15T12:04:08.508Z,37.08
2018-02-15T12:05:08.515Z,36.99
2018-02-15T12:06:08.528Z,37.46
2018-02-15T12:07:08.798Z,37.84
2018-02-15T12:08:08.810Z,37.74
2018-02-15T12:09:08.833Z,37.93
2018-02-15T12:10:08.592Z,37.65
2018-02-15T12:11:08.876Z,37.74
2018-02-15T12:12:08.618Z,37.67
2018-02-15T12:13:08.896Z,37.57
2018-02-15T12:14:08.901Z,37.67
2018-02-15T12:15:08.917Z,37.38
2018-02-15T12:16:08.676Z,37.48
2018-02-15T12:17:08.691Z,37.48
2018-02-15T12:18:08.963Z,37.01
2018-02-15T12:19:08.973Z,36.63
2018-02-15T12:20:08.737Z,36.63
2018-02-15T12:21:09.024Z,36.72
2018-02-15T12:22:08.763Z,37.1
2018-02-15T12:23:09.029Z,36.24
2018-02-15T12:24:09.048Z,35.86
2018-02-15T12:25:09.063Z,35.96
2018-02-15T12:26:09.080Z,36.34
2018-02-15T12:27:09.091Z,36.63
2018-02-15T12:28:08.854Z,36.91
2018-02-15T12:29:08.868Z,36.91
2018-02-15T12:30:09.145Z,36.99
2018-02-15T12:31:08.903Z,36.91
2018-02-15T12:32:09.171Z,37.19
2018-02-15T12:33:09.188Z,37.57
2018-02-15T12:34:09.203Z,37.67
2018-02-15T12:35:08.964Z,36.63
2018-02-15T12:36:09.234Z,36.72
2018-02-15T12:37:08.992Z,36.61
2018-02-15T12:38:09.259Z,36.7
2018-02-15T12:39:09.023Z,36.72
2018-02-15T12:40:09.296Z,36.72
2018-02-15T12:41:09.051Z,36.89
2018-02-15T12:42:09.070Z,36.99
2018-02-15T12:43:09.337Z,37.65
2018-02-15T12:44:09.353Z,36.7
2018-02-15T12:45:09.112Z,36.8
2018-02-15T12:46:09.130Z,36.53
2018-02-15T12:47:09.172Z,37.48
2018-02-15T12:48:09.183Z,37.67
2018-02-15T12:49:09.426Z,37.1
2018-02-15T12:50:09.460Z,37.57
2018-02-15T12:51:09.206Z,37.48
2018-02-15T12:52:09.479Z,37.1
2018-02-15T12:53:09.237Z,36.63
2018-02-15T12:54:09.515Z,36.63
2018-02-15T12:55:09.281Z,36.53
2018-02-15T12:56:09.600Z,36.53